sensor_id;sensor_type;location;lat;lon;timestamp;pressure;altitude;pressure_sealevel;temperature;humidity
37486;BME280;23341;50.296;18.960;2023-11-18T00:01:54;51565.72;;;-144.43;100.00
37486;BME280;23341;50.296;18.960;2023-11-18T00:07:03;51559.72;;;-144.43;100.00
37486;BME280;23341;50.296;18.960;2023-11-18T00:12:08;51583.72;;;-144.43;100.00
37486;BME280;23341;50.296;18.960;2023-11-18T00:17:13;51543.75;;;-144.43;100.00
37486;BME280;23341;50.296;18.960;2023-11-18T00:22:21;51581.72;;;-144.43;100.00
37486;BME280;23341;50.296;18.960;2023-11-18T00:27:27;51583.72;;;-144.43;100.00
37486;BME280;23341;50.296;18.960;2023-11-18T00:32:33;51521.75;;;-144.43;100.00
37486;BME280;23341;50.296;18.960;2023-11-18T00:37:41;51575.72;;;-144.43;100.00
37486;BME280;23341;50.296;18.960;2023-11-18T00:42:47;51581.72;;;-144.43;100.00
37486;BME280;23341;50.296;18.960;2023-11-18T00:47:53;51581.72;;;-144.43;100.00
37486;BME280;23341;50.296;18.960;2023-11-18T00:53:00;51613.72;;;-144.43;100.00
37486;BME280;23341;50.296;18.960;2023-11-18T00:58:05;51593.72;;;-144.43;100.00
37486;BME280;23341;50.296;18.960;2023-11-18T01:03:12;51573.72;;;-144.43;100.00
37486;BME280;23341;50.296;18.960;2023-11-18T01:08:21;51577.72;;;-144.43;100.00
37486;BME280;23341;50.296;18.960;2023-11-18T01:13:26;51565.72;;;-144.43;100.00
37486;BME280;23341;50.296;18.960;2023-11-18T01:18:33;51593.72;;;-144.43;100.00
37486;BME280;23341;50.296;18.960;2023-11-18T01:23:40;51589.72;;;-144.43;100.00
37486;BME280;23341;50.296;18.960;2023-11-18T01:28:48;51615.72;;;-144.43;100.00
37486;BME280;23341;50.296;18.960;2023-11-18T01:33:54;51613.72;;;-144.43;100.00
37486;BME280;23341;50.296;18.960;2023-11-18T01:39:03;51589.72;;;-144.43;100.00
37486;BME280;23341;50.296;18.960;2023-11-18T01:44:08;51581.72;;;-144.43;100.00
37486;BME280;23341;50.296;18.960;2023-11-18T01:49:14;51535.75;;;-144.43;100.00
37486;BME280;23341;50.296;18.960;2023-11-18T01:54:23;51617.72;;;-144.43;100.00
37486;BME280;23341;50.296;18.960;2023-11-18T01:59:28;51597.72;;;-144.43;100.00
37486;BME280;23341;50.296;18.960;2023-11-18T02:04:35;51585.72;;;-144.43;100.00
37486;BME280;23341;50.296;18.960;2023-11-18T02:09:43;51577.72;;;-144.43;100.00
37486;BME280;23341;50.296;18.960;2023-11-18T02:14:50;51567.72;;;-144.43;100.00
37486;BME280;23341;50.296;18.960;2023-11-18T02:19:57;51551.72;;;-144.43;100.00
37486;BME280;23341;50.296;18.960;2023-11-18T02:25:08;51561.72;;;-144.43;100.00
37486;BME280;23341;50.296;18.960;2023-11-18T02:30:16;51557.72;;;-144.43;100.00
37486;BME280;23341;50.296;18.960;2023-11-18T02:35:26;51593.72;;;-144.43;100.00
37486;BME280;23341;50.296;18.960;2023-11-18T02:40:35;51585.72;;;-144.43;100.00
37486;BME280;23341;50.296;18.960;2023-11-18T02:45:44;51563.72;;;-144.43;100.00
37486;BME280;23341;50.296;18.960;2023-11-18T02:50:50;51581.72;;;-144.43;100.00
37486;BME280;23341;50.296;18.960;2023-11-18T02:55:56;51583.72;;;-144.43;100.00
37486;BME280;23341;50.296;18.960;2023-11-18T03:01:08;51591.72;;;-144.43;100.00
37486;BME280;23341;50.296;18.960;2023-11-18T03:06:14;51591.72;;;-144.43;100.00
37486;BME280;23341;50.296;18.960;2023-11-18T03:11:20;51569.72;;;-144.43;100.00
37486;BME280;23341;50.296;18.960;2023-11-18T03:16:28;51605.72;;;-144.43;100.00
37486;BME280;23341;50.296;18.960;2023-11-18T03:21:34;51589.72;;;-144.43;100.00
37486;BME280;23341;50.296;18.960;2023-11-18T03:26:40;51597.72;;;-144.43;100.00
37486;BME280;23341;50.296;18.960;2023-11-18T03:31:48;51629.72;;;-144.43;100.00
37486;BME280;23341;50.296;18.960;2023-11-18T03:36:53;51609.72;;;-144.43;100.00
37486;BME280;23341;50.296;18.960;2023-11-18T03:42:00;51581.72;;;-144.43;100.00
37486;BME280;23341;50.296;18.960;2023-11-18T03:47:07;51625.72;;;-144.43;100.00
37486;BME280;23341;50.296;18.960;2023-11-18T03:52:13;51591.72;;;-144.43;100.00
37486;BME280;23341;50.296;18.960;2023-11-18T03:57:19;51609.72;;;-144.43;100.00
37486;BME280;23341;50.296;18.960;2023-11-18T04:02:26;51637.72;;;-144.43;100.00
37486;BME280;23341;50.296;18.960;2023-11-18T04:07:32;51595.72;;;-144.43;100.00
37486;BME280;23341;50.296;18.960;2023-11-18T04:12:39;51627.72;;;-144.43;100.00
37486;BME280;23341;50.296;18.960;2023-11-18T04:17:45;51621.72;;;-144.43;100.00
37486;BME280;23341;50.296;18.960;2023-11-18T04:22:51;51625.72;;;-144.43;100.00
37486;BME280;23341;50.296;18.960;2023-11-18T04:27:57;51607.72;;;-144.43;100.00
37486;BME280;23341;50.296;18.960;2023-11-18T04:33:04;51649.72;;;-144.43;100.00
37486;BME280;23341;50.296;18.960;2023-11-18T04:38:10;51609.72;;;-144.43;100.00
37486;BME280;23341;50.296;18.960;2023-11-18T04:43:15;51639.72;;;-144.43;100.00
37486;BME280;23341;50.296;18.960;2023-11-18T04:48:34;51641.72;;;-144.43;100.00
37486;BME280;23341;50.296;18.960;2023-11-18T04:53:44;51597.72;;;-144.43;100.00
37486;BME280;23341;50.296;18.960;2023-11-18T04:58:50;51629.72;;;-144.43;100.00
37486;BME280;23341;50.296;18.960;2023-11-18T05:03:57;51635.72;;;-144.43;100.00
37486;BME280;23341;50.296;18.960;2023-11-18T05:09:02;51611.72;;;-144.43;100.00
37486;BME280;23341;50.296;18.960;2023-11-18T05:14:12;51629.72;;;-144.43;100.00
37486;BME280;23341;50.296;18.960;2023-11-18T05:19:22;51613.72;;;-144.43;100.00
37486;BME280;23341;50.296;18.960;2023-11-18T05:24:28;51593.72;;;-144.43;100.00
37486;BME280;23341;50.296;18.960;2023-11-18T05:29:34;51581.72;;;-144.43;100.00
37486;BME280;23341;50.296;18.960;2023-11-18T05:34:41;51649.72;;;-144.43;100.00
37486;BME280;23341;50.296;18.960;2023-11-18T05:39:47;51565.72;;;-144.43;100.00
37486;BME280;23341;50.296;18.960;2023-11-18T05:44:57;51537.75;;;-144.43;100.00
37486;BME280;23341;50.296;18.960;2023-11-18T05:50:06;51581.72;;;-144.43;100.00
37486;BME280;23341;50.296;18.960;2023-11-18T05:55:13;51539.75;;;-144.43;100.00
37486;BME280;23341;50.296;18.960;2023-11-18T06:00:19;51597.72;;;-144.43;100.00
37486;BME280;23341;50.296;18.960;2023-11-18T06:05:39;51555.72;;;-144.43;100.00
37486;BME280;23341;50.296;18.960;2023-11-18T06:10:46;51557.72;;;-144.43;100.00
37486;BME280;23341;50.296;18.960;2023-11-18T06:15:52;51547.75;;;-144.43;100.00
37486;BME280;23341;50.296;18.960;2023-11-18T06:21:01;51551.72;;;-144.43;100.00
37486;BME280;23341;50.296;18.960;2023-11-18T06:26:07;51529.75;;;-144.43;100.00
37486;BME280;23341;50.296;18.960;2023-11-18T06:31:14;51547.75;;;-144.43;100.00
37486;BME280;23341;50.296;18.960;2023-11-18T06:36:22;51539.75;;;-144.43;100.00
37486;BME280;23341;50.296;18.960;2023-11-18T06:41:29;51555.72;;;-144.43;100.00
37486;BME280;23341;50.296;18.960;2023-11-18T06:46:37;51533.75;;;-144.43;100.00
37486;BME280;23341;50.296;18.960;2023-11-18T06:51:46;51537.75;;;-144.43;100.00
37486;BME280;23341;50.296;18.960;2023-11-18T06:56:52;51545.75;;;-144.43;100.00
37486;BME280;23341;50.296;18.960;2023-11-18T07:01:57;51551.72;;;-144.43;100.00
37486;BME280;23341;50.296;18.960;2023-11-18T07:07:05;51497.75;;;-144.43;100.00
37486;BME280;23341;50.296;18.960;2023-11-18T07:12:12;51533.75;;;-144.43;100.00
37486;BME280;23341;50.296;18.960;2023-11-18T07:17:17;51507.75;;;-144.43;100.00
37486;BME280;23341;50.296;18.960;2023-11-18T07:22:25;51553.72;;;-144.43;100.00
37486;BME280;23341;50.296;18.960;2023-11-18T07:27:33;51613.72;;;-144.43;100.00
37486;BME280;23341;50.296;18.960;2023-11-18T07:32:40;51587.72;;;-144.43;100.00
37486;BME280;23341;50.296;18.960;2023-11-18T07:37:47;51565.72;;;-144.43;100.00
37486;BME280;23341;50.296;18.960;2023-11-18T07:42:53;51585.72;;;-144.43;100.00
37486;BME280;23341;50.296;18.960;2023-11-18T07:47:59;51565.72;;;-144.43;100.00
37486;BME280;23341;50.296;18.960;2023-11-18T07:53:06;51569.72;;;-144.43;100.00
37486;BME280;23341;50.296;18.960;2023-11-18T07:58:13;51561.72;;;-144.43;100.00
37486;BME280;23341;50.296;18.960;2023-11-18T08:03:21;51537.75;;;-144.43;100.00
37486;BME280;23341;50.296;18.960;2023-11-18T08:08:29;51563.72;;;-144.43;100.00
37486;BME280;23341;50.296;18.960;2023-11-18T08:13:35;51557.72;;;-144.43;100.00
37486;BME280;23341;50.296;18.960;2023-11-18T08:18:40;51557.72;;;-144.43;100.00
37486;BME280;23341;50.296;18.960;2023-11-18T08:23:47;51529.75;;;-144.43;100.00
37486;BME280;23341;50.296;18.960;2023-11-18T08:28:56;51531.75;;;-144.43;100.00
37486;BME280;23341;50.296;18.960;2023-11-18T08:34:02;51517.75;;;-144.43;100.00
37486;BME280;23341;50.296;18.960;2023-11-18T08:39:10;51489.75;;;-144.43;100.00
37486;BME280;23341;50.296;18.960;2023-11-18T08:44:17;51489.75;;;-144.43;100.00
37486;BME280;23341;50.296;18.960;2023-11-18T08:49:27;51489.75;;;-144.43;100.00
37486;BME280;23341;50.296;18.960;2023-11-18T08:54:39;51493.75;;;-144.43;100.00
37486;BME280;23341;50.296;18.960;2023-11-18T09:00:07;51503.75;;;-144.43;100.00
37486;BME280;23341;50.296;18.960;2023-11-18T09:05:33;51509.75;;;-144.43;100.00
37486;BME280;23341;50.296;18.960;2023-11-18T09:10:41;51461.75;;;-144.43;100.00
37486;BME280;23341;50.296;18.960;2023-11-18T09:15:47;51513.75;;;-144.43;100.00
37486;BME280;23341;50.296;18.960;2023-11-18T09:20:53;51449.75;;;-144.43;100.00
37486;BME280;23341;50.296;18.960;2023-11-18T09:26:04;51469.75;;;-144.43;100.00
37486;BME280;23341;50.296;18.960;2023-11-18T09:31:11;51521.75;;;-144.43;100.00
37486;BME280;23341;50.296;18.960;2023-11-18T09:36:16;51497.75;;;-144.43;100.00
37486;BME280;23341;50.296;18.960;2023-11-18T09:41:24;51469.75;;;-144.43;100.00
37486;BME280;23341;50.296;18.960;2023-11-18T09:46:31;51461.75;;;-144.43;100.00
37486;BME280;23341;50.296;18.960;2023-11-18T09:51:45;51485.75;;;-144.43;100.00
37486;BME280;23341;50.296;18.960;2023-11-18T09:56:59;51453.75;;;-144.43;100.00
37486;BME280;23341;50.296;18.960;2023-11-18T10:02:13;51443.75;;;-144.43;100.00
37486;BME280;23341;50.296;18.960;2023-11-18T10:07:23;51429.75;;;-144.43;100.00
37486;BME280;23341;50.296;18.960;2023-11-18T10:12:38;51433.75;;;-144.43;100.00
37486;BME280;23341;50.296;18.960;2023-11-18T10:17:44;51425.75;;;-144.43;100.00
37486;BME280;23341;50.296;18.960;2023-11-18T10:23:06;51405.75;;;-144.43;100.00
37486;BME280;23341;50.296;18.960;2023-11-18T10:28:27;51407.75;;;-144.43;100.00
37486;BME280;23341;50.296;18.960;2023-11-18T10:33:35;51455.75;;;-144.43;100.00
37486;BME280;23341;50.296;18.960;2023-11-18T10:38:41;51411.75;;;-144.43;100.00
37486;BME280;23341;50.296;18.960;2023-11-18T10:44:07;51377.75;;;-144.43;100.00
37486;BME280;23341;50.296;18.960;2023-11-18T10:49:18;51425.75;;;-144.43;100.00
37486;BME280;23341;50.296;18.960;2023-11-18T10:54:25;51397.75;;;-144.43;100.00
37486;BME280;23341;50.296;18.960;2023-11-18T10:59:33;51405.75;;;-144.43;100.00
37486;BME280;23341;50.296;18.960;2023-11-18T11:04:43;51391.75;;;-144.43;100.00
37486;BME280;23341;50.296;18.960;2023-11-18T11:09:48;51421.75;;;-144.43;100.00
37486;BME280;23341;50.296;18.960;2023-11-18T11:15:12;51381.75;;;-144.43;100.00
37486;BME280;23341;50.296;18.960;2023-11-18T11:20:26;51395.75;;;-144.43;100.00
37486;BME280;23341;50.296;18.960;2023-11-18T11:25:41;51401.75;;;-144.43;100.00
37486;BME280;23341;50.296;18.960;2023-11-18T11:31:00;51405.75;;;-144.43;100.00
37486;BME280;23341;50.296;18.960;2023-11-18T11:36:12;51429.75;;;-144.43;100.00
37486;BME280;23341;50.296;18.960;2023-11-18T11:41:23;51385.75;;;-144.43;100.00
37486;BME280;23341;50.296;18.960;2023-11-18T11:46:33;51405.75;;;-144.43;100.00
37486;BME280;23341;50.296;18.960;2023-11-18T11:51:46;51357.75;;;-144.43;100.00
37486;BME280;23341;50.296;18.960;2023-11-18T11:56:56;51387.75;;;-144.43;100.00
37486;BME280;23341;50.296;18.960;2023-11-18T12:02:05;51401.75;;;-144.43;100.00
37486;BME280;23341;50.296;18.960;2023-11-18T12:07:15;51355.75;;;-144.43;100.00
37486;BME280;23341;50.296;18.960;2023-11-18T12:12:22;51337.78;;;-144.43;100.00
37486;BME280;23341;50.296;18.960;2023-11-18T12:18:09;51375.75;;;-144.43;100.00
37486;BME280;23341;50.296;18.960;2023-11-18T12:23:20;51369.75;;;-144.43;100.00
37486;BME280;23341;50.296;18.960;2023-11-18T12:28:30;51375.75;;;-144.43;100.00
37486;BME280;23341;50.296;18.960;2023-11-18T12:34:01;51393.75;;;-144.43;100.00
37486;BME280;23341;50.296;18.960;2023-11-18T12:39:36;51395.75;;;-144.43;100.00
37486;BME280;23341;50.296;18.960;2023-11-18T12:45:05;51369.75;;;-144.43;100.00
37486;BME280;23341;50.296;18.960;2023-11-18T12:50:23;51365.75;;;-144.43;100.00
37486;BME280;23341;50.296;18.960;2023-11-18T12:55:32;51355.75;;;-144.43;100.00
37486;BME280;23341;50.296;18.960;2023-11-18T13:00:40;51379.75;;;-144.43;100.00
37486;BME280;23341;50.296;18.960;2023-11-18T13:05:51;51347.75;;;-144.43;100.00
37486;BME280;23341;50.296;18.960;2023-11-18T13:10:56;51357.75;;;-144.43;100.00
37486;BME280;23341;50.296;18.960;2023-11-18T13:16:07;51397.75;;;-144.43;100.00
37486;BME280;23341;50.296;18.960;2023-11-18T13:21:16;51391.75;;;-144.43;100.00
37486;BME280;23341;50.296;18.960;2023-11-18T13:26:22;51333.78;;;-144.43;100.00
37486;BME280;23341;50.296;18.960;2023-11-18T13:31:28;51397.75;;;-144.43;100.00
37486;BME280;23341;50.296;18.960;2023-11-18T13:36:36;51377.75;;;-144.43;100.00
37486;BME280;23341;50.296;18.960;2023-11-18T13:41:42;51401.75;;;-144.43;100.00
37486;BME280;23341;50.296;18.960;2023-11-18T13:46:49;51425.75;;;-144.43;100.00
37486;BME280;23341;50.296;18.960;2023-11-18T13:51:56;51377.75;;;-144.43;100.00
37486;BME280;23341;50.296;18.960;2023-11-18T13:57:03;51363.75;;;-144.43;100.00
37486;BME280;23341;50.296;18.960;2023-11-18T14:02:10;51371.75;;;-144.43;100.00
37486;BME280;23341;50.296;18.960;2023-11-18T14:07:19;51373.75;;;-144.43;100.00
37486;BME280;23341;50.296;18.960;2023-11-18T14:12:25;51367.75;;;-144.43;100.00
37486;BME280;23341;50.296;18.960;2023-11-18T14:17:31;51385.75;;;-144.43;100.00
37486;BME280;23341;50.296;18.960;2023-11-18T14:22:38;51381.75;;;-144.43;100.00
37486;BME280;23341;50.296;18.960;2023-11-18T14:27:46;51393.75;;;-144.43;100.00
37486;BME280;23341;50.296;18.960;2023-11-18T14:32:52;51389.75;;;-144.43;100.00
37486;BME280;23341;50.296;18.960;2023-11-18T14:37:59;51365.75;;;-144.43;100.00
37486;BME280;23341;50.296;18.960;2023-11-18T14:43:05;51415.75;;;-144.43;100.00
37486;BME280;23341;50.296;18.960;2023-11-18T14:48:12;51379.75;;;-144.43;100.00
37486;BME280;23341;50.296;18.960;2023-11-18T14:53:20;51383.75;;;-144.43;100.00
37486;BME280;23341;50.296;18.960;2023-11-18T14:58:26;51391.75;;;-144.43;100.00
37486;BME280;23341;50.296;18.960;2023-11-18T15:03:32;51399.75;;;-144.43;100.00
37486;BME280;23341;50.296;18.960;2023-11-18T15:08:41;51379.75;;;-144.43;100.00
37486;BME280;23341;50.296;18.960;2023-11-18T15:13:48;51397.75;;;-144.43;100.00
37486;BME280;23341;50.296;18.960;2023-11-18T15:18:56;51425.75;;;-144.43;100.00
37486;BME280;23341;50.296;18.960;2023-11-18T15:24:05;51373.75;;;-144.43;100.00
37486;BME280;23341;50.296;18.960;2023-11-18T15:29:12;51341.78;;;-144.43;100.00
37486;BME280;23341;50.296;18.960;2023-11-18T15:34:18;51385.75;;;-144.43;100.00
37486;BME280;23341;50.296;18.960;2023-11-18T15:39:26;51417.75;;;-144.43;100.00
37486;BME280;23341;50.296;18.960;2023-11-18T15:44:33;51413.75;;;-144.43;100.00
37486;BME280;23341;50.296;18.960;2023-11-18T15:49:39;51365.75;;;-144.43;100.00
37486;BME280;23341;50.296;18.960;2023-11-18T15:54:47;51377.75;;;-144.43;100.00
37486;BME280;23341;50.296;18.960;2023-11-18T15:59:52;51403.75;;;-144.43;100.00
37486;BME280;23341;50.296;18.960;2023-11-18T16:04:58;51363.75;;;-144.43;100.00
37486;BME280;23341;50.296;18.960;2023-11-18T16:10:07;51395.75;;;-144.43;100.00
37486;BME280;23341;50.296;18.960;2023-11-18T16:15:12;51367.75;;;-144.43;100.00
37486;BME280;23341;50.296;18.960;2023-11-18T16:20:22;51373.75;;;-144.43;100.00
37486;BME280;23341;50.296;18.960;2023-11-18T16:25:31;51371.75;;;-144.43;100.00
37486;BME280;23341;50.296;18.960;2023-11-18T16:30:39;51383.75;;;-144.43;100.00
37486;BME280;23341;50.296;18.960;2023-11-18T16:35:45;51389.75;;;-144.43;100.00
37486;BME280;23341;50.296;18.960;2023-11-18T16:40:52;51357.75;;;-144.43;100.00
37486;BME280;23341;50.296;18.960;2023-11-18T16:45:59;51325.78;;;-144.43;100.00
37486;BME280;23341;50.296;18.960;2023-11-18T16:51:06;51343.78;;;-144.43;100.00
37486;BME280;23341;50.296;18.960;2023-11-18T16:56:13;51351.75;;;-144.43;100.00
37486;BME280;23341;50.296;18.960;2023-11-18T17:01:20;51355.75;;;-144.43;100.00
37486;BME280;23341;50.296;18.960;2023-11-18T17:06:28;51345.75;;;-144.43;100.00
37486;BME280;23341;50.296;18.960;2023-11-18T17:11:34;51349.78;;;-144.43;100.00
37486;BME280;23341;50.296;18.960;2023-11-18T17:16:41;51321.78;;;-144.43;100.00
37486;BME280;23341;50.296;18.960;2023-11-18T17:21:47;51393.75;;;-144.43;100.00
37486;BME280;23341;50.296;18.960;2023-11-18T17:26:55;51351.75;;;-144.43;100.00
37486;BME280;23341;50.296;18.960;2023-11-18T17:32:00;51327.78;;;-144.43;100.00
37486;BME280;23341;50.296;18.960;2023-11-18T17:37:07;51333.78;;;-144.43;100.00
37486;BME280;23341;50.296;18.960;2023-11-18T17:42:17;51329.78;;;-144.43;100.00
37486;BME280;23341;50.296;18.960;2023-11-18T17:47:22;51343.78;;;-144.43;100.00
37486;BME280;23341;50.296;18.960;2023-11-18T17:52:29;51339.78;;;-144.43;100.00
37486;BME280;23341;50.296;18.960;2023-11-18T17:57:37;51347.75;;;-144.43;100.00
37486;BME280;23341;50.296;18.960;2023-11-18T18:02:44;51343.78;;;-144.43;100.00
37486;BME280;23341;50.296;18.960;2023-11-18T18:07:50;51357.75;;;-144.43;100.00
37486;BME280;23341;50.296;18.960;2023-11-18T18:12:56;51333.78;;;-144.43;100.00
37486;BME280;23341;50.296;18.960;2023-11-18T18:18:02;51353.75;;;-144.43;100.00
37486;BME280;23341;50.296;18.960;2023-11-18T18:23:09;51329.78;;;-144.43;100.00
37486;BME280;23341;50.296;18.960;2023-11-18T18:28:16;51329.78;;;-144.43;100.00
37486;BME280;23341;50.296;18.960;2023-11-18T18:33:21;51311.78;;;-144.43;100.00
37486;BME280;23341;50.296;18.960;2023-11-18T18:38:29;51309.78;;;-144.43;100.00
37486;BME280;23341;50.296;18.960;2023-11-18T18:43:36;51341.78;;;-144.43;100.00
37486;BME280;23341;50.296;18.960;2023-11-18T18:48:42;51315.78;;;-144.43;100.00
37486;BME280;23341;50.296;18.960;2023-11-18T19:25:38;51353.75;;;-144.43;100.00
37486;BME280;23341;50.296;18.960;2023-11-18T19:30:44;51345.75;;;-144.43;100.00
37486;BME280;23341;50.296;18.960;2023-11-18T19:35:50;51329.78;;;-144.43;100.00
37486;BME280;23341;50.296;18.960;2023-11-18T19:41:00;51329.78;;;-144.43;100.00
37486;BME280;23341;50.296;18.960;2023-11-18T19:46:06;51357.75;;;-144.43;100.00
37486;BME280;23341;50.296;18.960;2023-11-18T19:51:13;51333.78;;;-144.43;100.00
37486;BME280;23341;50.296;18.960;2023-11-18T19:56:20;51309.78;;;-144.43;100.00
37486;BME280;23341;50.296;18.960;2023-11-18T20:01:26;51343.78;;;-144.43;100.00
37486;BME280;23341;50.296;18.960;2023-11-18T20:06:32;51289.78;;;-144.43;100.00
37486;BME280;23341;50.296;18.960;2023-11-18T20:11:48;51309.78;;;-144.43;100.00
37486;BME280;23341;50.296;18.960;2023-11-18T20:16:55;51305.78;;;-144.43;100.00
37486;BME280;23341;50.296;18.960;2023-11-18T20:22:00;51311.78;;;-144.43;100.00
37486;BME280;23341;50.296;18.960;2023-11-18T20:27:08;51321.78;;;-144.43;100.00
37486;BME280;23341;50.296;18.960;2023-11-18T20:32:14;51331.78;;;-144.43;100.00
37486;BME280;23341;50.296;18.960;2023-11-18T20:37:20;51293.78;;;-144.43;100.00
37486;BME280;23341;50.296;18.960;2023-11-18T20:42:28;51323.78;;;-144.43;100.00
37486;BME280;23341;50.296;18.960;2023-11-18T20:47:34;51333.78;;;-144.43;100.00
37486;BME280;23341;50.296;18.960;2023-11-18T20:52:40;51317.78;;;-144.43;100.00
37486;BME280;23341;50.296;18.960;2023-11-18T20:57:47;51329.78;;;-144.43;100.00
37486;BME280;23341;50.296;18.960;2023-11-18T21:02:53;51313.78;;;-144.43;100.00
37486;BME280;23341;50.296;18.960;2023-11-18T21:07:59;51319.78;;;-144.43;100.00
37486;BME280;23341;50.296;18.960;2023-11-18T21:13:06;51321.78;;;-144.43;100.00
37486;BME280;23341;50.296;18.960;2023-11-18T21:18:11;51283.78;;;-144.43;100.00
37486;BME280;23341;50.296;18.960;2023-11-18T21:23:17;51297.78;;;-144.43;100.00
37486;BME280;23341;50.296;18.960;2023-11-18T21:28:25;51313.78;;;-144.43;100.00
37486;BME280;23341;50.296;18.960;2023-11-18T21:33:31;51305.78;;;-144.43;100.00
37486;BME280;23341;50.296;18.960;2023-11-18T21:38:36;51279.78;;;-144.43;100.00
37486;BME280;23341;50.296;18.960;2023-11-18T21:43:44;51309.78;;;-144.43;100.00
37486;BME280;23341;50.296;18.960;2023-11-18T21:48:51;51287.78;;;-144.43;100.00
37486;BME280;23341;50.296;18.960;2023-11-18T21:53:57;51281.78;;;-144.43;100.00
37486;BME280;23341;50.296;18.960;2023-11-18T21:59:04;51253.78;;;-144.43;100.00
37486;BME280;23341;50.296;18.960;2023-11-18T22:04:11;51237.78;;;-144.43;100.00
37486;BME280;23341;50.296;18.960;2023-11-18T22:09:17;51241.78;;;-144.43;100.00
37486;BME280;23341;50.296;18.960;2023-11-18T22:14:24;51233.78;;;-144.43;100.00
37486;BME280;23341;50.296;18.960;2023-11-18T22:19:30;51231.78;;;-144.43;100.00
37486;BME280;23341;50.296;18.960;2023-11-18T22:24:36;51173.81;;;-144.43;100.00
37486;BME280;23341;50.296;18.960;2023-11-18T22:29:43;51193.78;;;-144.43;100.00
37486;BME280;23341;50.296;18.960;2023-11-18T22:34:53;51213.78;;;-144.43;100.00
37486;BME280;23341;50.296;18.960;2023-11-18T22:40:00;51213.78;;;-144.43;100.00
37486;BME280;23341;50.296;18.960;2023-11-18T22:45:08;51211.78;;;-144.43;100.00
37486;BME280;23341;50.296;18.960;2023-11-18T22:50:20;51233.78;;;-144.43;100.00
37486;BME280;23341;50.296;18.960;2023-11-18T22:55:27;51229.78;;;-144.43;100.00
37486;BME280;23341;50.296;18.960;2023-11-18T23:00:35;51241.78;;;-144.43;100.00
37486;BME280;23341;50.296;18.960;2023-11-18T23:05:54;51199.78;;;-144.43;100.00
37486;BME280;23341;50.296;18.960;2023-11-18T23:11:12;51211.78;;;-144.43;100.00
37486;BME280;23341;50.296;18.960;2023-11-18T23:16:20;51157.81;;;-144.43;100.00
37486;BME280;23341;50.296;18.960;2023-11-18T23:21:28;51171.81;;;-144.43;100.00
